Time;durP1;ratioP1;P1;durP2;ratioP2;P2;SDS_P1;SDS_P2;PMS_P1;PMS_P2;Temp;Humidity;BMP_temperature;BMP_pressure;BME280_temperature;BME280_humidity;BME280_pressure;Samples;Min_cycle;Max_cycle;Signal;HPM_P1;HPM_P2
2022/05/24 00:00:22;;;;;;;10.93;9.67;;;;;;;14.19;100.00;97146.69;7393759;19;20394;-58
2022/05/24 00:02:52;;;;;;;16.77;10.23;;;;;;;14.23;100.00;97100.78;7386408;19;20499;-59
2022/05/24 00:05:22;;;;;;;12.60;9.40;;;;;;;14.24;100.00;97094.69;7393793;19;20910;-58
2022/05/24 00:07:52;;;;;;;14.20;10.10;;;;;;;14.27;100.00;97081.63;7385303;19;20410;-59
2022/05/24 00:10:26;;;;;;;11.87;9.53;;;;;;;14.24;100.00;97084.31;7393376;19;20742;-59
2022/05/24 00:12:56;;;;;;;14.63;9.93;;;;;;;14.24;100.00;97073.94;7383657;19;20478;-59
2022/05/24 00:15:28;;;;;;;10.40;9.30;;;;;;;14.28;100.00;97065.19;7393462;19;20933;-58
2022/05/24 00:18:00;;;;;;;12.00;9.77;;;;;;;14.29;100.00;97062.56;7385189;19;20742;-57
2022/05/24 00:20:32;;;;;;;11.30;8.90;;;;;;;14.26;100.00;97056.63;7389027;19;20431;-57
2022/05/24 00:23:02;;;;;;;12.37;9.33;;;;;;;14.27;100.00;97058.31;7386425;19;20404;-59
2022/05/24 00:25:35;;;;;;;12.27;9.10;;;;;;;14.23;100.00;97047.19;7393176;19;20719;-58
2022/05/24 00:28:05;;;;;;;18.20;10.30;;;;;;;14.21;100.00;97055.91;7387580;19;20446;-59
2022/05/24 00:30:35;;;;;;;11.80;9.70;;;;;;;14.20;100.00;97057.66;7394184;19;20390;-59
2022/05/24 00:33:05;;;;;;;13.30;10.70;;;;;;;14.20;100.00;97046.44;7389818;19;20443;-58
2022/05/24 00:35:35;;;;;;;13.70;10.73;;;;;;;14.12;100.00;97050.13;7396540;19;20398;-58
2022/05/24 00:38:05;;;;;;;11.03;8.67;;;;;;;13.98;100.00;97055.75;7391005;19;20449;-58
2022/05/24 00:40:45;;;;;;;10.23;8.93;;;;;;;13.88;100.00;97049.13;7396249;19;20392;-59
2022/05/24 00:43:30;;;;;;;12.50;9.70;;;;;;;13.97;100.00;97010.00;7388939;19;20505;-59
2022/05/24 00:46:03;;;;;;;14.00;10.27;;;;;;;14.08;100.00;96986.31;7396165;19;20399;-59
2022/05/24 00:48:37;;;;;;;12.83;10.50;;;;;;;14.13;100.00;96953.34;7385683;19;20435;-59
2022/05/24 00:51:08;;;;;;;16.77;10.37;;;;;;;14.17;100.00;96938.53;7399512;19;20465;-58
2022/05/24 00:53:42;;;;;;;15.23;10.67;;;;;;;14.01;100.00;96922.63;7393199;19;20423;-56
2022/05/24 00:56:16;;;;;;;14.77;11.10;;;;;;;13.99;100.00;96914.91;7399426;19;20388;-59
2022/05/24 00:58:51;;;;;;;14.77;10.47;;;;;;;13.94;100.00;96905.59;7394097;19;20433;-60
2022/05/24 01:01:28;;;;;;;16.80;10.03;;;;;;;13.96;100.00;96888.25;7403603;19;20399;-58
2022/05/24 01:03:58;;;;;;;14.10;9.97;;;;;;;13.91;100.00;96875.47;7392998;19;20433;-58
2022/05/24 01:06:27;;;;;;;12.27;10.57;;;;;;;13.96;100.00;96878.75;7399360;19;20368;-60
2022/05/24 01:08:59;;;;;;;14.53;10.83;;;;;;;13.97;100.00;96879.56;7392787;19;20769;-59
2022/05/24 01:11:33;;;;;;;17.50;10.37;;;;;;;13.96;100.00;96877.88;7399327;19;20397;-59
2022/05/24 01:14:04;;;;;;;12.17;10.83;;;;;;;13.95;100.00;96871.03;7393200;19;20426;-59
2022/05/24 01:16:34;;;;;;;15.20;11.30;;;;;;;13.96;100.00;96868.38;7398886;19;20384;-59
2022/05/24 01:19:05;;;;;;;17.10;12.30;;;;;;;14.04;100.00;96865.50;7392049;19;20441;-59
2022/05/24 01:21:35;;;;;;;16.53;12.57;;;;;;;14.07;100.00;96855.06;7398593;19;20401;-59
2022/05/24 01:24:10;;;;;;;12.20;11.00;;;;;;;14.05;100.00;96851.66;7393131;19;20412;-59
2022/05/24 01:26:49;;;;;;;14.63;11.60;;;;;;;14.18;100.00;96847.75;7391537;19;20496;-58
2022/05/24 01:29:20;;;;;;;18.00;12.87;;;;;;;14.09;100.00;96844.63;7392615;19;20428;-59
2022/05/24 01:37:29;;;;;;;16.90;12.03;;;;;;;14.14;100.00;96840.97;7390083;19;20737;-59
2022/05/24 01:40:00;;;;;;;15.73;12.17;;;;;;;14.16;100.00;96844.34;7396725;19;20394;-59
2022/05/24 01:42:33;;;;;;;14.23;11.73;;;;;;;14.19;100.00;96843.41;7389714;19;20835;-60
2022/05/24 01:45:07;;;;;;;18.33;13.60;;;;;;;14.26;100.00;96846.63;7402201;19;20402;-56
2022/05/24 01:47:37;;;;;;;16.60;12.57;;;;;;;14.24;100.00;96856.19;7392435;19;20414;-60
2022/05/24 01:50:09;;;;;;;16.37;13.80;;;;;;;14.30;100.00;96845.59;7396338;19;20390;-58
2022/05/24 01:52:41;;;;;;;20.20;11.67;;;;;;;14.30;100.00;96838.69;7391409;19;20406;-56
2022/05/24 01:55:14;;;;;;;24.00;15.63;;;;;;;14.34;100.00;96831.63;7397471;19;20401;-58
2022/05/24 01:57:48;;;;;;;22.10;17.33;;;;;;;14.38;100.00;96829.78;7390662;19;20415;-58
2022/05/24 02:00:19;;;;;;;21.10;15.57;;;;;;;14.35;100.00;96822.13;7398828;19;20413;-58
2022/05/24 02:02:48;;;;;;;15.90;10.50;;;;;;;14.18;100.00;96795.91;7390831;19;20422;-55
2022/05/24 02:05:32;;;;;;;16.30;13.13;;;;;;;14.14;100.00;96799.50;7397060;19;20916;-56
2022/05/24 02:08:03;;;;;;;14.10;10.73;;;;;;;14.04;100.00;96822.31;7391404;19;20761;-59
2022/05/24 02:10:38;;;;;;;12.23;7.40;;;;;;;13.93;100.00;96831.38;7395679;19;20387;-56
2022/05/24 02:13:10;;;;;;;8.00;6.73;;;;;;;13.83;100.00;96848.94;7390342;19;20494;-57
2022/05/24 02:15:43;;;;;;;8.30;7.40;;;;;;;13.85;100.00;96860.94;7396614;19;20410;-59
2022/05/24 02:18:15;;;;;;;13.37;8.00;;;;;;;13.81;100.00;96872.34;7389999;19;20416;-59
2022/05/24 02:20:46;;;;;;;8.23;7.17;;;;;;;13.68;100.00;96889.19;7396183;19;20909;-57
2022/05/24 02:23:19;;;;;;;13.30;9.03;;;;;;;13.62;100.00;96903.16;7390662;19;20402;-54
2022/05/24 02:25:50;;;;;;;10.70;7.57;;;;;;;13.59;100.00;96919.63;7396507;19;20455;-55
2022/05/24 02:28:25;;;;;;;10.03;7.93;;;;;;;13.57;100.00;96930.94;7391913;19;20422;-54
2022/05/24 02:30:56;;;;;;;11.70;9.27;;;;;;;13.45;100.00;96942.50;7394732;19;20384;-56
2022/05/24 02:33:26;;;;;;;12.70;8.57;;;;;;;13.33;100.00;96970.47;7389826;19;20925;-57
2022/05/24 02:35:56;;;;;;;15.60;9.70;;;;;;;13.28;100.00;96972.34;7395998;19;20391;-56
2022/05/24 02:38:26;;;;;;;13.07;9.83;;;;;;;13.26;100.00;96986.22;7391556;19;20426;-56
2022/05/24 02:43:40;;;;;;;17.73;13.20;;;;;;;13.23;100.00;97010.47;7389548;19;20955;-58
2022/05/24 02:46:10;;;;;;;17.93;11.67;;;;;;;13.19;100.00;97039.91;7395865;19;20389;-59
2022/05/24 02:48:40;;;;;;;16.70;12.80;;;;;;;13.22;100.00;97050.16;7390139;19;20419;-56
2022/05/24 02:51:11;;;;;;;21.53;13.30;;;;;;;13.23;100.00;97055.31;7394223;19;20426;-57
2022/05/24 02:53:41;;;;;;;20.13;13.67;;;;;;;13.21;100.00;97067.44;7389895;19;20414;-58
2022/05/24 02:56:11;;;;;;;17.33;13.37;;;;;;;13.18;100.00;97077.88;7395665;19;20385;-60
2022/05/24 02:58:44;;;;;;;27.73;16.93;;;;;;;13.20;100.00;97080.44;7390797;19;20973;-59
2022/05/24 03:01:19;;;;;;;26.40;15.80;;;;;;;13.19;100.00;97083.91;7395718;19;20398;-57
2022/05/24 03:03:49;;;;;;;21.63;15.53;;;;;;;13.17;100.00;97089.13;7388703;19;20929;-59
2022/05/24 03:06:20;;;;;;;27.13;17.60;;;;;;;13.18;100.00;97108.94;7395629;19;20917;-58
2022/05/24 03:14:14;;;;;;;26.27;15.83;;;;;;;13.12;100.00;97127.22;7393744;19;20423;-56
2022/05/24 03:14:24;;;;;;;27.83;16.23;;;;;;;13.13;100.00;97130.66;7388446;19;20958;-55
2022/05/24 03:16:56;;;;;;;27.33;18.60;;;;;;;13.14;100.00;97140.13;7395084;19;20382;-57
2022/05/24 03:19:26;;;;;;;23.10;16.73;;;;;;;13.12;100.00;97152.25;7389989;19;20414;-59
2022/05/24 03:21:55;;;;;;;24.10;18.43;;;;;;;13.09;100.00;97141.06;7393589;19;20398;-59
2022/05/24 03:24:25;;;;;;;26.50;16.03;;;;;;;13.06;100.00;97155.84;7389743;19;20402;-58
2022/05/24 03:26:54;;;;;;;30.23;18.73;;;;;;;13.11;100.00;97169.50;7394755;19;20447;-57
2022/05/24 03:29:26;;;;;;;27.80;18.07;;;;;;;13.04;100.00;97174.00;7389585;19;20410;-55
2022/05/24 03:31:56;;;;;;;29.33;17.83;;;;;;;13.02;100.00;97186.13;7393250;19;20396;-57
2022/05/24 03:34:25;;;;;;;32.10;18.13;;;;;;;12.97;100.00;97195.72;7388687;19;20421;-56
2022/05/24 03:36:55;;;;;;;27.73;18.93;;;;;;;12.98;100.00;97206.94;7398423;19;20410;-57
2022/05/24 03:39:24;;;;;;;27.83;18.60;;;;;;;12.95;100.00;97226.84;7389721;19;20417;-55
2022/05/24 03:41:54;;;;;;;27.70;18.57;;;;;;;12.88;100.00;97234.78;7392544;19;21027;-57
2022/05/24 03:44:23;;;;;;;31.13;20.40;;;;;;;12.90;100.00;97239.03;7388654;19;20417;-55
2022/05/24 03:46:56;;;;;;;31.20;20.03;;;;;;;12.88;100.00;97260.66;7394224;19;20454;-59
2022/05/24 03:49:26;;;;;;;27.70;19.70;;;;;;;12.87;100.00;97262.38;7388743;19;20438;-56
2022/05/24 03:51:56;;;;;;;26.33;17.87;;;;;;;12.86;100.00;97265.00;7390369;19;20393;-59
2022/05/24 03:54:25;;;;;;;28.07;19.37;;;;;;;12.88;100.00;97271.00;7388975;19;20970;-58
2022/05/24 03:59:42;;;;;;;23.77;15.90;;;;;;;12.78;100.00;97280.69;7392227;19;20959;-59
2022/05/24 04:02:14;;;;;;;28.00;17.27;;;;;;;12.82;100.00;97287.53;7392166;19;20397;-56
2022/05/24 04:04:44;;;;;;;29.97;17.57;;;;;;;12.82;100.00;97288.34;7393135;19;20424;-55
2022/05/24 04:07:14;;;;;;;24.67;16.90;;;;;;;12.85;100.00;97302.97;7394420;19;20924;-58
2022/05/24 04:09:44;;;;;;;25.50;17.70;;;;;;;12.87;100.00;97310.69;7393059;19;20412;-54
2022/05/24 04:12:13;;;;;;;26.77;16.60;;;;;;;12.86;100.00;97319.34;7392139;19;20920;-56
2022/05/24 04:14:43;;;;;;;26.10;17.67;;;;;;;12.90;100.00;97332.16;7393011;19;20407;-57
2022/05/24 04:17:16;;;;;;;30.10;19.63;;;;;;;12.93;100.00;97333.84;7393613;19;20390;-58
2022/05/24 04:19:45;;;;;;;23.90;14.63;;;;;;;12.90;100.00;97344.25;7392917;19;20418;-58
2022/05/24 04:22:15;;;;;;;21.93;14.60;;;;;;;12.91;100.00;97343.34;7386200;19;20473;-62
2022/05/24 04:24:44;;;;;;;21.00;14.30;;;;;;;12.93;100.00;97357.13;7395367;19;20398;-56
2022/05/24 04:27:14;;;;;;;21.37;14.77;;;;;;;12.95;100.00;97360.53;7400905;19;20925;-58
2022/05/24 04:29:45;;;;;;;23.80;15.03;;;;;;;12.98;100.00;97377.72;7399983;19;20429;-59
2022/05/24 04:32:17;;;;;;;22.97;14.40;;;;;;;12.96;100.00;97388.94;7397599;19;20394;-56
2022/05/24 04:34:46;;;;;;;22.47;12.40;;;;;;;12.91;100.00;97400.28;7399617;19;20415;-56
2022/05/24 04:37:17;;;;;;;22.37;13.83;;;;;;;12.94;100.00;97400.22;7395383;19;20390;-58
2022/05/24 04:39:46;;;;;;;16.80;12.10;;;;;;;12.94;100.00;97418.34;7400020;19;20491;-58
2022/05/24 04:42:19;;;;;;;20.20;10.93;;;;;;;12.89;100.00;97422.75;7393443;19;20940;-59
2022/05/24 04:44:51;;;;;;;14.90;10.63;;;;;;;12.88;100.00;97421.03;7399187;19;20382;-56
2022/05/24 04:47:25;;;;;;;14.63;10.10;;;;;;;12.90;100.00;97429.63;7394250;19;20739;-59
2022/05/24 04:49:57;;;;;;;14.90;9.50;;;;;;;12.87;100.00;97435.69;7399631;19;20386;-57
2022/05/24 04:52:29;;;;;;;17.03;10.63;;;;;;;12.87;100.00;97452.97;7391107;19;20428;-55
2022/05/24 04:54:58;;;;;;;15.27;10.30;;;;;;;12.86;100.00;97461.63;7399266;19;20397;-56
2022/05/24 04:57:28;;;;;;;15.63;10.57;;;;;;;12.88;100.00;97467.63;7392558;19;20450;-59
2022/05/24 04:59:57;;;;;;;18.20;10.30;;;;;;;12.92;100.00;97475.28;7399225;19;20390;-55
2022/05/24 05:02:30;;;;;;;18.63;9.90;;;;;;;12.93;100.00;97476.97;7392906;19;20482;-57
2022/05/24 05:05:00;;;;;;;13.97;9.00;;;;;;;12.82;100.00;97492.72;7399153;19;20474;-55
2022/05/24 05:07:29;;;;;;;11.80;7.70;;;;;;;12.81;100.00;97488.44;7392257;19;20401;-55
2022/05/24 05:09:59;;;;;;;11.23;5.70;;;;;;;12.77;100.00;97510.06;7398971;19;20378;-58
2022/05/24 05:12:28;;;;;;;9.90;6.60;;;;;;;12.76;100.00;97505.78;7389714;19;20445;-58
2022/05/24 05:14:58;;;;;;;10.80;6.77;;;;;;;12.74;100.00;97512.72;7398647;19;20401;-55
2022/05/24 05:17:30;;;;;;;12.40;6.77;;;;;;;12.69;100.00;97517.97;7393229;19;20468;-59
2022/05/24 05:20:01;;;;;;;11.10;5.80;;;;;;;12.69;100.00;97522.28;7398230;19;20927;-58
2022/05/24 05:22:31;;;;;;;10.23;6.67;;;;;;;12.73;100.00;97516.19;7391977;19;20418;-55
2022/05/24 05:25:00;;;;;;;11.70;6.90;;;;;;;12.71;100.00;97528.28;7398464;19;20388;-55
2022/05/24 05:27:29;;;;;;;11.87;6.50;;;;;;;12.77;100.00;97538.50;7394173;19;20735;-60
2022/05/24 05:32:45;;;;;;;13.50;6.37;;;;;;;12.85;100.00;97550.44;7390246;19;20403;-53
2022/05/24 05:35:15;;;;;;;11.07;5.73;;;;;;;12.87;100.00;97553.88;7397964;19;20394;-53
2022/05/24 05:37:44;;;;;;;9.77;5.47;;;;;;;12.90;100.00;97561.56;7390019;19;20820;-56
2022/05/24 05:40:15;;;;;;;9.73;5.43;;;;;;;12.97;100.00;97576.09;7399409;19;20410;-57
2022/05/24 05:42:45;;;;;;;8.80;4.20;;;;;;;12.97;100.00;97591.63;7389902;19;20411;-57
2022/05/24 05:45:15;;;;;;;7.80;4.70;;;;;;;13.04;100.00;97590.66;7398189;19;20383;-58
2022/05/24 05:47:48;;;;;;;7.50;4.63;;;;;;;13.13;100.00;97596.53;7392241;19;20872;-58
2022/05/24 05:50:19;;;;;;;6.43;4.80;;;;;;;13.23;100.00;97606.66;7398154;19;20996;-58
2022/05/24 05:52:49;;;;;;;5.87;4.40;;;;;;;13.31;100.00;97611.69;7389550;19;20424;-57
2022/05/24 05:55:19;;;;;;;8.10;4.80;;;;;;;13.26;100.00;97623.00;7399702;19;20395;-58
2022/05/24 05:57:49;;;;;;;10.30;5.17;;;;;;;13.23;100.00;97632.53;7392868;19;20540;-58
2022/05/24 06:00:20;;;;;;;9.97;4.83;;;;;;;13.36;100.00;97630.59;7397959;19;20922;-55
2022/05/24 06:02:52;;;;;;;11.13;5.37;;;;;;;13.34;100.00;97650.47;7390625;19;20422;-58
2022/05/24 06:05:28;;;;;;;9.40;4.93;;;;;;;13.48;100.00;97654.53;7397575;19;20934;-57
2022/05/24 06:07:58;;;;;;;8.83;5.27;;;;;;;13.49;100.00;97675.25;7391387;19;20413;-57
2022/05/24 06:10:28;;;;;;;12.00;5.30;;;;;;;13.53;100.00;97668.25;7397327;19;20732;-59
2022/05/24 06:12:59;;;;;;;10.00;5.63;;;;;;;13.63;100.00;97681.88;7387945;19;20749;-57
2022/05/24 06:15:28;;;;;;;8.17;4.90;;;;;;;13.55;100.00;97683.78;7397199;19;20402;-56
2022/05/24 06:18:01;;;;;;;7.63;5.13;;;;;;;13.52;100.00;97708.00;7391239;19;20412;-57
2022/05/24 06:20:32;;;;;;;9.50;5.07;;;;;;;13.54;100.00;97729.53;7397095;19;20739;-59
2022/05/24 06:23:01;;;;;;;12.30;5.80;;;;;;;13.56;100.00;97750.22;7389618;19;20419;-59
2022/05/24 06:25:32;;;;;;;12.20;4.90;;;;;;;13.58;100.00;97751.91;7396676;19;20392;-55
2022/05/24 06:28:02;;;;;;;6.17;4.20;;;;;;;13.77;100.00;97769.72;7391487;19;20415;-59
2022/05/24 06:30:35;;;;;;;7.97;5.27;;;;;;;13.68;100.00;97775.06;7396615;19;20796;-57
2022/05/24 06:33:07;;;;;;;8.73;4.87;;;;;;;13.77;100.00;97780.06;7388303;19;20419;-59
2022/05/24 06:35:43;;;;;;;8.43;5.00;;;;;;;13.71;100.00;97798.31;7396435;19;20393;-59
2022/05/24 06:38:13;;;;;;;7.80;5.57;;;;;;;13.77;100.00;97805.97;7391327;19;20408;-58
2022/05/24 06:40:42;;;;;;;10.87;6.13;;;;;;;13.88;100.00;97811.81;7396370;19;20396;-58
2022/05/24 06:43:13;;;;;;;11.23;5.77;;;;;;;13.90;100.00;97815.22;7389297;19;20408;-58
2022/05/24 06:45:43;;;;;;;7.30;5.23;;;;;;;13.82;100.00;97830.09;7395585;19;20470;-59
2022/05/24 06:48:15;;;;;;;9.50;5.93;;;;;;;13.81;100.00;97833.56;7388280;19;20422;-59
2022/05/24 06:50:45;;;;;;;7.57;5.47;;;;;;;13.82;100.00;97844.75;7395844;19;20386;-59
2022/05/24 06:53:14;;;;;;;9.00;5.33;;;;;;;13.87;100.00;97854.19;7388554;19;20423;-57
2022/05/24 06:55:44;;;;;;;12.70;5.40;;;;;;;13.82;100.00;97857.72;7395745;19;20391;-58
2022/05/24 06:58:14;;;;;;;7.50;5.10;;;;;;;13.83;100.00;97860.28;7389201;19;20417;-53
2022/05/24 07:03:32;;;;;;;12.80;6.33;;;;;;;14.07;100.00;97867.63;7387653;19;20463;-56
2022/05/24 07:06:02;;;;;;;8.97;5.50;;;;;;;14.03;100.00;97875.50;7399380;19;20408;-58
2022/05/24 07:08:31;;;;;;;11.40;5.50;;;;;;;14.09;100.00;97881.44;7389169;19;20424;-57
2022/05/24 07:11:01;;;;;;;34.93;14.33;;;;;;;14.05;100.00;97888.41;7396173;19;20455;-57
2022/05/24 07:13:30;;;;;;;9.40;6.80;;;;;;;13.99;100.00;97899.75;7386188;19;20516;-58
2022/05/24 07:16:00;;;;;;;11.63;6.00;;;;;;;14.01;100.00;97910.94;7395053;19;20386;-55
2022/05/24 07:18:32;;;;;;;10.20;6.27;;;;;;;14.04;100.00;97918.66;7388262;19;20870;-58
2022/05/24 07:21:02;;;;;;;10.40;6.67;;;;;;;14.09;100.00;97921.16;7398538;19;20400;-56
2022/05/24 07:23:32;;;;;;;15.30;9.80;;;;;;;14.02;100.00;97929.94;7387866;19;20411;-58
2022/05/24 07:26:11;;;;;;;9.73;7.50;;;;;;;14.09;100.00;97926.34;7394921;19;20753;-58
2022/05/24 07:29:01;;;;;;;22.83;13.20;;;;;;;14.17;100.00;97934.84;7388769;19;20408;-54
2022/05/24 07:31:30;;;;;;;14.77;9.83;;;;;;;14.48;100.00;97950.72;7394079;19;20412;-52
2022/05/24 07:34:02;;;;;;;44.63;19.03;;;;;;;14.55;100.00;97947.13;7387301;19;20407;-59
2022/05/24 07:36:32;;;;;;;15.90;10.10;;;;;;;14.81;100.00;97950.97;7395561;19;20786;-57
2022/05/24 07:39:01;;;;;;;30.47;17.20;;;;;;;14.77;100.00;97955.38;7388328;19;20418;-57
2022/05/24 07:46:56;;;;;;;15.80;12.27;;;;;;;14.50;100.00;97985.28;7394841;19;20379;-55
2022/05/24 07:49:28;;;;;;;17.20;12.77;;;;;;;14.63;100.00;97991.97;7388167;19;20976;-59
2022/05/24 07:51:58;;;;;;;14.40;10.37;;;;;;;14.74;100.00;98002.16;7391533;19;20398;-56
2022/05/24 07:54:27;;;;;;;15.30;9.97;;;;;;;14.77;100.00;98012.47;7390658;19;20514;-58
2022/05/24 07:56:57;;;;;;;13.30;10.87;;;;;;;14.88;100.00;98017.47;7393675;19;20469;-56
2022/05/24 07:59:26;;;;;;;17.17;10.90;;;;;;;14.92;100.00;98031.25;7392698;19;20413;-58
2022/05/24 08:01:57;;;;;;;17.77;12.40;;;;;;;14.83;100.00;98042.66;7400352;19;20390;-55
2022/05/24 08:04:29;;;;;;;17.43;12.97;;;;;;;14.95;100.00;98047.63;7396444;19;20410;-55
2022/05/24 08:07:01;;;;;;;19.63;13.57;;;;;;;14.91;100.00;98045.94;7401224;19;20394;-59
2022/05/24 08:09:31;;;;;;;14.13;11.43;;;;;;;14.89;100.00;98054.66;7393211;19;20419;-59
2022/05/24 08:12:00;;;;;;;16.20;11.55;;;;;;;14.91;100.00;98058.94;7403649;19;20395;-58
2022/05/24 08:14:30;;;;;;;22.67;14.10;;;;;;;14.97;100.00;98070.94;7395021;19;20434;-56
2022/05/24 08:16:59;;;;;;;17.20;12.00;;;;;;;15.08;100.00;98081.97;7400668;19;20384;-55
2022/05/24 08:19:31;;;;;;;17.50;11.87;;;;;;;15.06;100.00;98096.72;7394314;19;20494;-59
2022/05/24 08:22:02;;;;;;;21.10;12.47;;;;;;;15.02;100.00;98096.81;7399699;19;20391;-57
2022/05/24 08:24:31;;;;;;;22.23;12.07;;;;;;;15.01;100.00;98110.69;7391356;19;20446;-56
2022/05/24 08:27:01;;;;;;;19.43;12.50;;;;;;;15.16;100.00;98105.19;7398784;19;20395;-58
2022/05/24 08:29:30;;;;;;;18.10;11.70;;;;;;;15.19;100.00;98107.75;7395664;19;21012;-58
2022/05/24 08:32:00;;;;;;;15.67;9.30;;;;;;;15.42;100.00;98123.75;7399557;19;20394;-58
2022/05/24 08:34:32;;;;;;;22.93;12.53;;;;;;;15.54;100.00;98128.72;7397184;19;20802;-57
2022/05/24 08:37:02;;;;;;;16.00;11.33;;;;;;;15.71;100.00;98130.97;7402125;19;20472;-57
2022/05/24 08:39:31;;;;;;;17.60;11.00;;;;;;;15.80;100.00;98138.53;7394052;19;20462;-56
2022/05/24 08:42:09;;;;;;;14.90;10.00;;;;;;;15.71;100.00;98153.47;7399056;19;20457;-57
2022/05/24 08:50:12;;;;;;;17.70;9.70;;;;;;;15.64;100.00;98182.19;7400042;19;20953;-55
2022/05/24 08:52:47;;;;;;;15.70;7.07;;;;;;;15.82;100.00;98179.25;7394302;19;20410;-58
2022/05/24 08:55:18;;;;;;;12.77;7.30;;;;;;;16.01;100.00;98214.41;7400628;19;20415;-58
2022/05/24 08:57:50;;;;;;;16.37;9.83;;;;;;;15.89;100.00;98215.50;7394958;19;20420;-54
2022/05/24 09:00:24;;;;;;;14.03;9.07;;;;;;;15.96;100.00;98229.25;7400119;19;20391;-53
2022/05/24 09:02:54;;;;;;;26.83;12.73;;;;;;;16.03;100.00;98240.38;7394410;19;20426;-58
2022/05/24 09:05:29;;;;;;;17.97;10.90;;;;;;;15.98;100.00;98237.88;7399786;19;20788;-57
2022/05/24 09:08:13;;;;;;;12.30;8.13;;;;;;;15.95;100.00;98244.88;7393502;19;20424;-56
2022/05/24 09:10:48;;;;;;;25.30;12.10;;;;;;;15.87;100.00;98258.00;7399181;19;20410;-59
2022/05/24 09:13:29;;;;;;;15.77;8.63;;;;;;;15.79;100.00;98264.22;7389616;19;20969;-56
2022/05/24 09:16:04;;;;;;;19.33;9.60;;;;;;;15.90;100.00;98261.41;7398511;19;20395;-59
2022/05/24 09:18:38;;;;;;;15.90;10.10;;;;;;;15.89;100.00;98259.69;7393534;19;21058;-57
2022/05/24 09:21:18;;;;;;;16.87;9.80;;;;;;;16.11;100.00;98248.91;7400022;19;20814;-55
2022/05/24 09:23:49;;;;;;;15.77;9.73;;;;;;;16.36;100.00;98252.72;7392370;19;20422;-57
2022/05/24 09:26:22;;;;;;;41.47;15.67;;;;;;;16.45;100.00;98257.69;7398523;19;20392;-58
2022/05/24 09:28:53;;;;;;;14.00;9.30;;;;;;;16.58;100.00;98263.50;7393192;19;20417;-59
2022/05/24 09:31:27;;;;;;;19.40;9.83;;;;;;;16.42;100.00;98284.63;7398228;19;20391;-58
2022/05/24 09:34:00;;;;;;;13.77;8.00;;;;;;;16.31;100.00;98292.69;7390331;19;20947;-55
2022/05/24 09:36:39;;;;;;;16.40;9.60;;;;;;;16.43;100.00;98288.97;7398234;19;20929;-57
2022/05/24 09:39:23;;;;;;;25.23;11.73;;;;;;;16.15;100.00;98307.75;7392991;19;20424;-58
2022/05/24 09:41:58;;;;;;;33.53;15.83;;;;;;;16.22;100.00;98295.50;7396656;19;20397;-57
2022/05/24 09:44:28;;;;;;;15.23;9.33;;;;;;;16.03;100.00;98300.19;7392206;19;20509;-52
2022/05/24 09:46:58;;;;;;;17.57;9.67;;;;;;;15.96;100.00;98307.28;7399937;19;20759;-56
2022/05/24 09:49:29;;;;;;;20.37;10.60;;;;;;;15.82;100.00;98310.09;7395140;19;20451;-60
2022/05/24 09:52:14;;;;;;;15.47;7.93;;;;;;;15.68;100.00;98317.28;7396203;19;20414;-57
2022/05/24 09:54:54;;;;;;;17.90;10.63;;;;;;;15.49;100.00;98313.25;7398329;19;20816;-58
2022/05/24 09:57:26;;;;;;;12.50;9.60;;;;;;;15.49;100.00;98318.47;7392254;19;20405;-58
2022/05/24 10:00:12;;;;;;;19.97;12.67;;;;;;;15.32;100.00;98313.56;7396597;19;20932;-57
2022/05/24 10:02:42;;;;;;;22.90;12.67;;;;;;;15.18;100.00;98313.78;7389811;19;20509;-57
2022/05/24 10:05:20;;;;;;;17.13;12.30;;;;;;;15.28;100.00;98308.44;7396929;19;20408;-57
2022/05/24 10:08:01;;;;;;;21.43;14.27;;;;;;;15.34;100.00;98298.78;7391753;19;20443;-57
2022/05/24 10:10:32;;;;;;;17.87;12.60;;;;;;;15.29;100.00;98300.63;7397417;19;20395;-56
2022/05/24 10:13:07;;;;;;;20.00;10.73;;;;;;;15.08;100.00;98307.03;7388874;19;20439;-57
2022/05/24 10:15:43;;;;;;;22.47;12.13;;;;;;;15.11;100.00;98306.97;7397046;19;20387;-58
2022/05/24 10:18:27;;;;;;;24.20;10.67;;;;;;;14.97;100.00;98325.34;7391038;19;20866;-59
2022/05/24 10:21:05;;;;;;;16.30;10.33;;;;;;;14.93;100.00;98334.09;7396166;19;20460;-58
2022/05/24 10:23:46;;;;;;;24.70;11.70;;;;;;;14.81;100.00;98348.06;7387390;19;20414;-56
2022/05/24 10:26:30;;;;;;;25.80;10.97;;;;;;;14.68;100.00;98363.78;7396347;19;20383;-58
2022/05/24 10:29:04;;;;;;;40.90;14.90;;;;;;;14.67;100.00;98369.00;7390679;19;20399;-54
2022/05/24 10:31:44;;;;;;;15.43;10.93;;;;;;;14.70;100.00;98368.97;7398654;19;20408;-57
2022/05/24 10:40:06;;;;;;;25.93;10.87;;;;;;;14.38;100.00;98365.91;7393417;19;20751;-57
2022/05/24 10:42:44;;;;;;;19.63;11.60;;;;;;;14.50;100.00;98371.84;7366621;19;20788;-59
2022/05/24 10:45:17;;;;;;;25.27;13.70;;;;;;;14.50;100.00;98379.63;7394885;19;20764;-58
2022/05/24 10:47:50;;;;;;;19.17;11.90;;;;;;;14.55;100.00;98375.19;7389771;19;20405;-55
2022/05/24 10:50:31;;;;;;;29.27;13.30;;;;;;;14.48;100.00;98378.75;7395061;19;20450;-57
2022/05/24 10:53:07;;;;;;;19.43;12.37;;;;;;;14.54;100.00;98376.97;7389145;19;20420;-56
2022/05/24 10:55:43;;;;;;;28.93;15.07;;;;;;;14.53;100.00;98400.31;7393861;19;20875;-57
2022/05/24 10:58:14;;;;;;;22.80;12.43;;;;;;;14.52;100.00;98396.00;7389836;19;20422;-56
2022/05/24 11:00:47;;;;;;;26.07;13.23;;;;;;;14.47;100.00;98393.47;7395208;19;20386;-55
2022/05/24 11:03:18;;;;;;;21.63;11.80;;;;;;;14.34;100.00;98397.94;7388683;19;20414;-57
2022/05/24 11:05:50;;;;;;;21.00;13.47;;;;;;;14.21;100.00;98419.69;7395705;19;20795;-58
2022/05/24 11:08:31;;;;;;;24.50;14.00;;;;;;;14.19;100.00;98419.72;7387807;19;20484;-58
2022/05/24 11:11:08;;;;;;;22.70;13.73;;;;;;;14.10;100.00;98410.28;7396697;19;20386;-57
2022/05/24 11:13:43;;;;;;;26.60;17.20;;;;;;;14.03;100.00;98403.44;7388260;19;20421;-55
2022/05/24 11:16:35;;;;;;;24.13;15.40;;;;;;;14.02;100.00;98394.84;7394828;19;20444;-57
2022/05/24 11:19:05;;;;;;;24.93;16.20;;;;;;;14.05;100.00;98396.50;7387500;19;20816;-58
2022/05/24 11:21:38;;;;;;;25.17;15.37;;;;;;;13.94;100.00;98385.41;7397340;19;20468;-58
2022/05/24 11:24:11;;;;;;;31.03;17.57;;;;;;;13.78;100.00;98398.50;7392138;19;20518;-56
2022/05/24 11:26:52;;;;;;;28.63;16.80;;;;;;;13.56;100.00;98395.22;7398162;19;20397;-55
2022/05/24 11:29:28;;;;;;;18.03;8.97;;;;;;;13.22;100.00;98404.06;7392630;19;20443;-55
2022/05/24 11:32:07;;;;;;;19.90;10.40;;;;;;;13.08;100.00;98423.13;7396151;19;20461;-55
2022/05/24 11:34:38;;;;;;;18.50;10.30;;;;;;;13.08;100.00;98409.34;7390536;19;20442;-50
2022/05/24 11:37:13;;;;;;;18.67;9.37;;;;;;;13.07;100.00;98410.19;7398016;19;20920;-58
2022/05/24 11:39:46;;;;;;;16.57;9.50;;;;;;;13.16;100.00;98404.09;7396967;19;20458;-55
2022/05/24 11:42:32;;;;;;;13.57;7.83;;;;;;;13.19;100.00;98409.28;7377493;19;20425;-57
2022/05/24 11:45:22;;;;;;;11.80;7.70;;;;;;;13.31;100.00;98418.69;7397681;19;20419;-56
2022/05/24 11:48:00;;;;;;;12.70;7.43;;;;;;;13.24;100.00;98418.72;7390471;19;20443;-58
2022/05/24 11:50:42;;;;;;;10.47;6.63;;;;;;;13.27;100.00;98448.91;7397655;19;20407;-57
2022/05/24 11:53:13;;;;;;;10.13;6.23;;;;;;;13.28;100.00;98457.56;7389712;19;20448;-58
2022/05/24 11:55:52;;;;;;;11.57;7.10;;;;;;;13.42;100.00;98480.75;7395311;19;20730;-57
2022/05/24 11:58:47;;;;;;;15.53;7.40;;;;;;;13.39;100.00;98491.16;7391039;19;20498;-58
2022/05/24 12:01:42;;;;;;;13.10;8.50;;;;;;;13.56;100.00;98485.91;7397270;19;20389;-54
2022/05/24 12:10:47;;;;;;;13.03;9.87;;;;;;;13.96;100.00;98506.34;7394070;19;20409;-58
2022/05/24 12:13:34;;;;;;;16.13;8.80;;;;;;;14.02;100.00;98513.22;7385982;19;20769;-57
2022/05/24 12:16:06;;;;;;;13.50;10.30;;;;;;;14.13;100.00;98524.34;7391504;19;20392;-55
2022/05/24 12:18:46;;;;;;;14.93;9.87;;;;;;;14.28;100.00;98522.50;7386275;19;20422;-58
2022/05/24 12:22:01;;;;;;;13.07;9.43;;;;;;;14.33;100.00;98525.91;7393317;19;20379;-58